createdAt,value
2019-01-11T00:00:32.305Z,0.00
2019-01-11T00:03:00.897Z,0.00
2019-01-11T00:05:29.501Z,-0.10
2019-01-11T00:07:58.122Z,-0.10
2019-01-11T00:10:26.579Z,-0.10
2019-01-11T00:12:55.126Z,-0.10
2019-01-11T00:15:23.656Z,-0.10
2019-01-11T00:17:52.319Z,-0.10
2019-01-11T00:20:21.002Z,-0.10
2019-01-11T00:22:49.615Z,-0.10
2019-01-11T00:25:18.217Z,-0.10
2019-01-11T00:27:46.760Z,-0.10
2019-01-11T00:30:15.646Z,-0.20
2019-01-11T00:32:44.297Z,-0.10
2019-01-11T00:35:12.756Z,-0.20
2019-01-11T00:37:41.320Z,-0.10
2019-01-11T00:40:09.878Z,-0.10
2019-01-11T00:42:38.462Z,-0.10
2019-01-11T00:45:09.751Z,-0.10
2019-01-11T00:47:38.416Z,0.00
2019-01-11T00:50:08.909Z,0.00
2019-01-11T00:52:37.518Z,0.00
2019-01-11T00:55:08.391Z,0.00
2019-01-11T00:57:36.954Z,0.00
2019-01-11T01:00:17.662Z,0.00
2019-01-11T01:02:46.372Z,0.00
2019-01-11T01:05:15.071Z,0.00
2019-01-11T01:07:43.737Z,-0.10
2019-01-11T01:10:12.304Z,-0.10
2019-01-11T01:12:40.954Z,-0.10
2019-01-11T01:15:11.702Z,-0.10
2019-01-11T01:17:40.121Z,-0.10
2019-01-11T01:20:16.738Z,-0.10
2019-01-11T01:22:45.277Z,-0.10
2019-01-11T01:25:13.734Z,-0.10
2019-01-11T01:27:42.275Z,-0.10
2019-01-11T01:30:16.919Z,-0.10
2019-01-11T01:32:45.538Z,-0.10
2019-01-11T01:35:14.080Z,-0.10
2019-01-11T01:37:42.767Z,-0.10
2019-01-11T01:40:13.899Z,-0.10
2019-01-11T01:42:42.569Z,-0.10
2019-01-11T01:45:16.577Z,-0.10
2019-01-11T01:47:45.274Z,-0.10
2019-01-11T01:50:13.949Z,-0.10
2019-01-11T01:52:42.476Z,-0.10
2019-01-11T01:55:13.261Z,-0.10
2019-01-11T01:57:41.833Z,-0.10
2019-01-11T02:00:13.616Z,-0.10
2019-01-11T02:02:42.115Z,-0.10
2019-01-11T02:05:10.913Z,-0.10
2019-01-11T02:07:39.404Z,-0.10
2019-01-11T02:10:10.844Z,-0.10
2019-01-11T02:12:39.561Z,-0.10
2019-01-11T02:15:09.717Z,-0.10
2019-01-11T02:17:38.360Z,-0.10
2019-01-11T02:20:10.262Z,-0.10
2019-01-11T02:22:38.799Z,-0.20
2019-01-11T02:25:08.057Z,-0.20
2019-01-11T02:27:36.620Z,-0.20
2019-01-11T02:30:08.501Z,-0.20
2019-01-11T02:32:37.308Z,-0.20
2019-01-11T02:35:05.853Z,-0.20
2019-01-11T02:37:34.582Z,-0.10
2019-01-11T02:40:03.662Z,-0.20
2019-01-11T02:42:32.317Z,-0.10
2019-01-11T02:45:00.948Z,-0.10
2019-01-11T02:47:29.425Z,-0.10
2019-01-11T02:49:58.170Z,-0.10
2019-01-11T02:52:26.758Z,-0.10
2019-01-11T02:54:55.259Z,-0.10
2019-01-11T02:57:23.786Z,-0.10
2019-01-11T02:59:52.398Z,-0.10
2019-01-11T03:02:20.913Z,-0.10
2019-01-11T03:04:49.790Z,-0.10
2019-01-11T03:07:18.216Z,-0.10
2019-01-11T03:09:46.931Z,0.00
2019-01-11T03:12:15.495Z,-0.10
2019-01-11T03:14:44.066Z,0.00
2019-01-11T03:17:12.777Z,0.00
2019-01-11T03:19:47.726Z,-0.10
2019-01-11T03:22:11.653Z,-0.10
2019-01-11T03:24:40.241Z,0.00
2019-01-11T03:27:08.734Z,0.00
2019-01-11T03:29:37.293Z,-0.10
2019-01-11T03:32:05.863Z,-0.10
2019-01-11T03:34:36.198Z,-0.10
2019-01-11T03:37:04.780Z,-0.10
2019-01-11T03:39:33.383Z,-0.10
2019-01-11T03:42:03.530Z,-0.10
2019-01-11T03:44:31.994Z,-0.10
2019-01-11T03:47:00.511Z,-0.10
2019-01-11T03:49:29.157Z,-0.10
2019-01-11T03:51:57.855Z,-0.10
2019-01-11T03:54:26.377Z,-0.10
2019-01-11T03:56:55.023Z,-0.10
2019-01-11T03:59:23.581Z,0.00
2019-01-11T04:01:52.136Z,0.00
2019-01-11T04:04:20.762Z,-0.10
2019-01-11T04:06:49.324Z,0.00
2019-01-11T04:09:17.920Z,0.00
2019-01-11T04:11:46.537Z,0.00
2019-01-11T04:14:15.260Z,0.00
2019-01-11T04:16:43.830Z,0.00
2019-01-11T04:19:12.454Z,0.00
2019-01-11T04:21:42.653Z,0.00
2019-01-11T04:24:11.236Z,0.00
2019-01-11T04:26:39.882Z,0.00
2019-01-11T04:29:08.441Z,0.00
2019-01-11T04:31:36.958Z,0.00
2019-01-11T04:34:05.621Z,0.00
2019-01-11T04:36:34.290Z,0.10
2019-01-11T04:39:04.127Z,0.00
2019-01-11T04:41:32.719Z,0.00
2019-01-11T04:44:01.339Z,0.00
2019-01-11T04:46:29.879Z,0.00
2019-01-11T04:48:58.414Z,0.00
2019-01-11T04:51:26.853Z,0.00
2019-01-11T04:53:55.460Z,0.00
2019-01-11T04:56:24.097Z,0.10
2019-01-11T04:58:52.737Z,0.10
2019-01-11T05:01:21.274Z,0.10
2019-01-11T05:03:49.854Z,0.10
2019-01-11T05:06:18.331Z,0.10
2019-01-11T05:08:47.106Z,0.10
2019-01-11T05:11:15.624Z,0.20
2019-01-11T05:13:44.171Z,0.20
2019-01-11T05:16:12.594Z,0.20
2019-01-11T05:18:41.320Z,0.20
2019-01-11T05:21:09.829Z,0.20
2019-01-11T05:23:38.409Z,0.10
2019-01-11T05:26:07.110Z,0.10
2019-01-11T05:28:35.770Z,0.10
2019-01-11T05:31:04.568Z,0.00
2019-01-11T05:33:33.147Z,0.00
2019-01-11T05:36:01.566Z,0.00
2019-01-11T05:38:30.043Z,-0.10
2019-01-11T05:40:58.619Z,-0.10
2019-01-11T05:43:27.358Z,-0.10
2019-01-11T05:45:55.982Z,-0.10
2019-01-11T05:48:24.623Z,-0.20
2019-01-11T05:50:53.052Z,-0.20
2019-01-11T05:53:21.549Z,-0.20
2019-01-11T05:55:50.081Z,-0.30
2019-01-11T05:58:22.994Z,-0.30
2019-01-11T06:00:51.532Z,-0.30
2019-01-11T06:03:20.230Z,-0.30
2019-01-11T06:05:48.722Z,-0.30
2019-01-11T06:08:18.897Z,-0.30
2019-01-11T06:10:47.639Z,-0.30
2019-01-11T06:13:16.078Z,-0.30
2019-01-11T06:15:44.724Z,-0.30
2019-01-11T06:18:13.671Z,-0.30
2019-01-11T06:20:42.441Z,-0.20
2019-01-11T06:23:11.038Z,-0.20
2019-01-11T06:25:39.654Z,-0.20
2019-01-11T06:28:08.157Z,-0.20
2019-01-11T06:30:36.959Z,-0.20
2019-01-11T06:33:05.558Z,-0.20
2019-01-11T06:35:35.389Z,-0.20
2019-01-11T06:38:03.965Z,-0.20
2019-01-11T06:40:32.575Z,-0.20
2019-01-11T06:43:03.663Z,-0.20
2019-01-11T06:45:31.316Z,-0.20
2019-01-11T06:47:59.957Z,-0.20
2019-01-11T06:50:28.560Z,-0.20
2019-01-11T06:52:57.178Z,-0.20
2019-01-11T06:55:25.763Z,-0.20
2019-01-11T06:57:54.436Z,-0.20
2019-01-11T07:00:22.995Z,-0.30
2019-01-11T07:02:51.733Z,-0.30
2019-01-11T07:05:20.154Z,-0.30
2019-01-11T07:07:48.611Z,-0.30
2019-01-11T07:10:19.704Z,-0.30
2019-01-11T07:12:48.243Z,-0.40
2019-01-11T07:15:16.778Z,-0.50
2019-01-11T07:17:45.360Z,-0.50
2019-01-11T07:20:14.906Z,-0.50
2019-01-11T07:22:43.538Z,-0.50
2019-01-11T07:25:13.968Z,-0.40
2019-01-11T07:27:44.014Z,-0.30
2019-01-11T07:30:14.693Z,-0.20
2019-01-11T07:32:43.284Z,-0.10
2019-01-11T07:35:11.805Z,-0.10
2019-01-11T07:37:40.419Z,0.00
2019-01-11T07:40:12.952Z,0.00
2019-01-11T07:42:41.413Z,0.00
2019-01-11T07:45:11.897Z,-0.10
2019-01-11T07:47:40.421Z,-0.10
2019-01-11T07:50:10.049Z,-0.20
2019-01-11T07:52:38.506Z,-0.20
2019-01-11T07:55:09.369Z,-0.20
2019-01-11T07:57:37.840Z,-0.20
2019-01-11T08:00:09.373Z,-0.20
2019-01-11T08:02:37.993Z,-0.20
2019-01-11T08:05:06.955Z,-0.10
2019-01-11T08:07:35.610Z,0.10
2019-01-11T08:10:07.488Z,0.30
2019-01-11T08:12:36.184Z,0.60
2019-01-11T08:15:07.707Z,0.80
2019-01-11T08:17:36.338Z,1.20
2019-01-11T08:20:06.552Z,1.60
2019-01-11T08:22:36.689Z,2.10
2019-01-11T08:25:06.626Z,2.40
2019-01-11T08:27:35.203Z,2.80
2019-01-11T08:30:05.021Z,3.50
2019-01-11T08:32:33.536Z,4.20
2019-01-11T08:35:03.784Z,5.20
2019-01-11T08:37:32.785Z,6.40
2019-01-11T08:40:01.543Z,7.40
2019-01-11T08:42:30.002Z,8.40
2019-01-11T08:45:00.029Z,8.80
2019-01-11T08:47:28.624Z,9.50
2019-01-11T08:49:57.175Z,10.00
2019-01-11T08:52:25.713Z,10.20
2019-01-11T08:54:54.488Z,10.50
2019-01-11T08:57:23.130Z,11.30
2019-01-11T08:59:51.595Z,12.00
2019-01-11T09:02:20.189Z,13.10
2019-01-11T09:04:48.936Z,13.00
2019-01-11T09:07:17.597Z,14.10
2019-01-11T09:09:46.149Z,14.30
2019-01-11T09:12:14.714Z,13.80
2019-01-11T09:14:47.933Z,13.10
2019-01-11T09:17:16.853Z,15.10
2019-01-11T09:19:46.016Z,14.70
2019-01-11T09:22:14.844Z,15.50
2019-01-11T09:24:43.550Z,17.40
2019-01-11T09:27:12.344Z,18.00
2019-01-11T09:29:40.822Z,17.90
2019-01-11T09:32:09.518Z,18.70
2019-01-11T09:34:38.148Z,19.10
2019-01-11T09:37:07.152Z,20.00
2019-01-11T09:39:36.097Z,20.10
2019-01-11T09:42:04.742Z,19.60
2019-01-11T09:44:33.314Z,19.20
2019-01-11T09:47:01.860Z,18.10
2019-01-11T09:49:30.415Z,18.00
2019-01-11T09:51:59.040Z,16.30
2019-01-11T09:54:27.657Z,15.30
2019-01-11T09:56:56.076Z,15.00
2019-01-11T09:59:24.650Z,13.90
2019-01-11T10:01:55.046Z,13.20
2019-01-11T10:04:25.242Z,12.90
2019-01-11T10:06:55.625Z,12.80
2019-01-11T10:09:24.470Z,12.80
2019-01-11T10:11:53.065Z,13.90
2019-01-11T10:14:21.616Z,14.20
2019-01-11T10:16:50.692Z,14.40
2019-01-11T10:19:19.276Z,14.40
2019-01-11T10:21:47.847Z,14.90
2019-01-11T10:24:16.591Z,15.90
2019-01-11T10:26:45.109Z,16.30
2019-01-11T10:29:13.659Z,16.30
2019-01-11T10:31:42.360Z,17.30
2019-01-11T10:34:10.921Z,17.80
2019-01-11T10:36:39.615Z,18.10
2019-01-11T10:39:08.179Z,18.50
2019-01-11T10:41:36.729Z,19.10
2019-01-11T10:44:05.287Z,19.30
2019-01-11T10:46:35.773Z,20.80
2019-01-11T10:49:04.330Z,20.80
2019-01-11T10:51:32.941Z,22.60
2019-01-11T10:54:01.532Z,22.50
2019-01-11T10:56:30.072Z,23.20
2019-01-11T10:58:58.590Z,24.20
2019-01-11T11:01:27.230Z,24.60
2019-01-11T11:03:55.745Z,24.10
2019-01-11T11:06:24.392Z,22.60
2019-01-11T11:08:52.925Z,21.10
2019-01-11T11:11:21.464Z,20.50
2019-01-11T11:13:49.925Z,18.00
2019-01-11T11:16:18.559Z,17.20
2019-01-11T11:18:47.034Z,16.00
2019-01-11T11:21:15.548Z,17.40
2019-01-11T11:23:44.151Z,17.00
2019-01-11T11:26:12.600Z,16.00
2019-01-11T11:28:41.087Z,14.30
2019-01-11T11:31:09.604Z,12.90
2019-01-11T11:33:38.081Z,11.10
2019-01-11T11:36:06.708Z,10.50
2019-01-11T11:38:35.394Z,10.10
2019-01-11T11:41:03.835Z,9.60
2019-01-11T11:43:33.272Z,9.20
2019-01-11T11:46:01.889Z,8.30
2019-01-11T11:48:30.554Z,7.70
2019-01-11T11:50:59.131Z,6.80
2019-01-11T11:53:27.758Z,6.10
2019-01-11T11:55:56.370Z,6.00
2019-01-11T11:58:25.127Z,5.50
2019-01-11T12:00:53.706Z,5.40
2019-01-11T12:03:22.360Z,5.10
2019-01-11T12:05:51.454Z,4.40
2019-01-11T12:08:20.371Z,4.20
2019-01-11T12:10:49.028Z,4.30
2019-01-11T12:13:17.671Z,4.20
2019-01-11T12:15:46.308Z,3.80
2019-01-11T12:18:14.793Z,3.00
2019-01-11T12:20:43.390Z,2.50
2019-01-11T12:23:12.051Z,2.30
2019-01-11T12:25:40.705Z,2.20
2019-01-11T12:28:09.500Z,2.30
2019-01-11T12:30:37.970Z,2.20
2019-01-11T12:33:06.515Z,2.20
2019-01-11T12:35:35.054Z,2.10
2019-01-11T12:38:03.683Z,2.00
2019-01-11T12:40:33.258Z,1.80
2019-01-11T12:43:01.678Z,1.80
2019-01-11T12:45:30.458Z,1.80
2019-01-11T12:47:59.079Z,1.90
2019-01-11T12:50:27.609Z,1.90
2019-01-11T12:52:56.305Z,1.80
2019-01-11T12:55:24.863Z,1.90
2019-01-11T12:57:53.474Z,1.90
2019-01-11T13:00:22.165Z,1.90
2019-01-11T13:02:50.951Z,2.00
2019-01-11T13:05:20.149Z,2.10
2019-01-11T13:07:48.812Z,2.10
2019-01-11T13:10:18.879Z,2.60
2019-01-11T13:12:47.684Z,2.60
2019-01-11T13:15:18.941Z,2.90
2019-01-11T13:17:47.408Z,3.20
2019-01-11T13:20:17.681Z,5.30
2019-01-11T13:22:46.488Z,7.30
2019-01-11T13:25:14.972Z,7.10
2019-01-11T13:27:43.428Z,6.50
2019-01-11T13:30:14.212Z,7.20
2019-01-11T13:32:42.978Z,8.30
2019-01-11T13:35:11.485Z,8.40
2019-01-11T13:37:40.272Z,7.10
2019-01-11T13:40:12.071Z,5.60
2019-01-11T13:42:40.544Z,4.60
2019-01-11T13:45:09.402Z,4.00
2019-01-11T13:47:37.964Z,3.30
2019-01-11T13:50:10.280Z,2.70
2019-01-11T13:52:38.805Z,2.20
2019-01-11T13:55:07.690Z,1.90
2019-01-11T13:57:36.407Z,1.60
2019-01-11T14:00:08.411Z,1.40
2019-01-11T14:02:36.986Z,1.30
2019-01-11T14:05:06.062Z,1.10
2019-01-11T14:07:34.798Z,1.00
2019-01-11T14:10:03.311Z,1.00
2019-01-11T14:12:32.181Z,1.00
2019-01-11T14:15:01.024Z,1.00
2019-01-11T14:17:29.465Z,0.90
2019-01-11T14:19:58.029Z,0.90
2019-01-11T14:22:26.782Z,0.80
2019-01-11T14:24:55.317Z,0.80
2019-01-11T14:27:23.756Z,0.80
2019-01-11T14:29:52.360Z,0.70
2019-01-11T14:32:20.863Z,0.60
2019-01-11T14:34:49.363Z,0.60
2019-01-11T14:37:17.884Z,0.60
2019-01-11T14:39:46.547Z,0.60
2019-01-11T14:42:15.066Z,0.60
2019-01-11T14:44:43.747Z,0.60
2019-01-11T14:47:12.309Z,0.60
2019-01-11T14:49:41.046Z,0.60
2019-01-11T14:52:09.714Z,0.60
2019-01-11T14:54:38.227Z,0.50
2019-01-11T14:57:06.706Z,0.50
2019-01-11T14:59:35.975Z,0.40
2019-01-11T15:02:04.727Z,0.50
2019-01-11T15:04:33.216Z,0.40
2019-01-11T15:07:01.712Z,0.40
2019-01-11T15:09:30.310Z,0.40
2019-01-11T15:11:58.857Z,0.30
2019-01-11T15:14:27.420Z,0.30
2019-01-11T15:16:55.964Z,0.40
2019-01-11T15:19:24.521Z,0.30
2019-01-11T15:21:53.076Z,0.30
2019-01-11T15:24:21.948Z,0.30
2019-01-11T15:26:50.495Z,0.30
2019-01-11T15:29:19.199Z,0.30
2019-01-11T15:31:47.708Z,0.30
2019-01-11T15:34:16.508Z,0.30
2019-01-11T15:36:45.698Z,0.30
2019-01-11T15:39:14.157Z,0.30
2019-01-11T15:41:42.962Z,0.30
2019-01-11T15:44:11.812Z,0.30
2019-01-11T15:46:40.256Z,0.20
2019-01-11T15:49:08.931Z,0.20
2019-01-11T15:51:37.880Z,0.20
2019-01-11T15:54:06.604Z,0.20
2019-01-11T15:56:35.401Z,0.20
2019-01-11T15:59:04.007Z,0.10
2019-01-11T16:01:32.466Z,0.10
2019-01-11T16:04:03.531Z,0.00
2019-01-11T16:06:32.356Z,0.00
2019-01-11T16:09:04.726Z,0.00
2019-01-11T16:11:43.701Z,0.00
2019-01-11T16:14:33.577Z,-0.10
2019-01-11T16:17:05.800Z,-0.10
2019-01-11T16:19:34.332Z,-0.10
2019-01-11T16:22:04.526Z,-0.10
2019-01-11T16:24:33.558Z,-0.20
2019-01-11T16:27:02.160Z,-0.10
2019-01-11T16:29:30.723Z,-0.10
2019-01-11T16:31:59.555Z,-0.10
2019-01-11T16:34:28.386Z,-0.10
2019-01-11T16:36:57.950Z,-0.10
2019-01-11T16:39:26.420Z,-0.20
2019-01-11T16:41:55.286Z,-0.10
2019-01-11T16:44:24.091Z,-0.20
2019-01-11T16:46:52.728Z,-0.20
2019-01-11T16:49:22.792Z,-0.20
2019-01-11T16:51:51.376Z,-0.20
2019-01-11T16:54:19.899Z,-0.20
2019-01-11T16:56:48.696Z,-0.20
2019-01-11T16:59:17.205Z,-0.20
2019-01-11T17:01:45.695Z,-0.20
2019-01-11T17:04:14.298Z,-0.20
2019-01-11T17:06:42.784Z,-0.20
2019-01-11T17:09:11.471Z,-0.10
2019-01-11T17:11:40.169Z,-0.10
2019-01-11T17:14:08.821Z,-0.20
2019-01-11T17:16:37.896Z,-0.20
2019-01-11T17:19:06.663Z,-0.20
2019-01-11T17:21:35.244Z,-0.20
2019-01-11T17:24:03.955Z,-0.20
2019-01-11T17:26:32.595Z,-0.20
2019-01-11T17:29:01.087Z,-0.20
2019-01-11T17:31:29.844Z,-0.20
2019-01-11T17:33:58.807Z,-0.30
2019-01-11T17:36:27.505Z,-0.20
2019-01-11T17:38:55.970Z,-0.30
2019-01-11T17:41:24.402Z,-0.20
2019-01-11T17:43:52.877Z,-0.20
2019-01-11T17:46:21.518Z,-0.20
2019-01-11T17:48:50.068Z,-0.30
2019-01-11T17:51:18.531Z,-0.20
2019-01-11T17:53:47.176Z,-0.20
2019-01-11T17:56:16.098Z,-0.20
2019-01-11T17:58:44.744Z,-0.20
2019-01-11T18:01:13.320Z,-0.20
2019-01-11T18:03:42.118Z,-0.20
2019-01-11T18:06:10.992Z,-0.20
2019-01-11T18:08:39.858Z,-0.20
2019-01-11T18:11:08.479Z,-0.20
2019-01-11T18:13:36.986Z,-0.10
2019-01-11T18:16:05.764Z,-0.20
2019-01-11T18:18:34.215Z,-0.10
2019-01-11T18:21:02.828Z,-0.10
2019-01-11T18:23:31.425Z,-0.10
2019-01-11T18:25:59.905Z,-0.10
2019-01-11T18:28:28.466Z,-0.10
2019-01-11T18:30:56.956Z,-0.10
2019-01-11T18:33:25.431Z,-0.10
2019-01-11T18:35:54.014Z,0.00
2019-01-11T18:38:22.545Z,0.00
2019-01-11T18:40:51.060Z,0.00
2019-01-11T18:43:19.491Z,0.00
2019-01-11T18:45:48.113Z,0.00
2019-01-11T18:48:16.717Z,0.00
2019-01-11T18:50:45.433Z,0.10
2019-01-11T18:53:14.169Z,0.10
2019-01-11T18:55:42.766Z,0.10
2019-01-11T18:58:11.252Z,0.10
2019-01-11T19:00:39.874Z,0.10
2019-01-11T19:03:08.359Z,0.10
2019-01-11T19:05:36.845Z,0.20
2019-01-11T19:08:05.398Z,0.20
2019-01-11T19:10:33.912Z,0.20
2019-01-11T19:13:02.531Z,0.30
2019-01-11T19:15:31.163Z,0.30
2019-01-11T19:17:59.720Z,0.30
2019-01-11T19:20:28.794Z,0.40
2019-01-11T19:22:57.248Z,0.40
2019-01-11T19:25:25.901Z,0.40
2019-01-11T19:27:54.421Z,0.50
2019-01-11T19:30:27.089Z,0.50
2019-01-11T19:32:56.818Z,0.50
2019-01-11T19:35:26.530Z,0.60
2019-01-11T19:37:55.204Z,0.60
2019-01-11T19:40:24.312Z,0.60
2019-01-11T19:42:52.906Z,0.60
2019-01-11T19:45:21.470Z,0.70
2019-01-11T19:47:50.059Z,0.70
2019-01-11T19:50:20.887Z,0.70
2019-01-11T19:52:50.321Z,0.80
2019-01-11T19:55:19.100Z,0.80
2019-01-11T19:57:48.123Z,0.90
2019-01-11T20:00:19.886Z,1.00
2019-01-11T20:02:48.674Z,1.00
2019-01-11T20:05:17.500Z,1.10
2019-01-11T20:07:46.598Z,1.10
2019-01-11T20:10:18.367Z,1.10
2019-01-11T20:12:47.087Z,1.20
2019-01-11T20:15:15.815Z,1.20
2019-01-11T20:17:44.637Z,1.20
2019-01-11T20:20:14.721Z,1.20
2019-01-11T20:22:43.543Z,1.20
2019-01-11T20:25:21.027Z,1.20
2019-01-11T20:27:49.614Z,1.20
2019-01-11T20:30:23.433Z,1.20
2019-01-11T20:32:52.365Z,1.20
2019-01-11T20:35:21.076Z,1.30
2019-01-11T20:37:49.696Z,1.30
2019-01-11T20:40:18.304Z,1.30
2019-01-11T20:42:46.822Z,1.30
2019-01-11T20:45:18.353Z,1.40
2019-01-11T20:47:47.033Z,1.30
2019-01-11T20:50:17.716Z,1.30
2019-01-11T20:52:46.342Z,1.40
2019-01-11T20:55:14.948Z,1.40
2019-01-11T20:57:44.866Z,1.40
2019-01-11T21:00:17.191Z,1.40
2019-01-11T21:02:46.065Z,1.40
2019-01-11T21:05:15.575Z,1.40
2019-01-11T21:07:44.653Z,1.40
2019-01-11T21:10:14.750Z,1.40
2019-01-11T21:12:43.592Z,1.50
2019-01-11T21:15:15.368Z,1.50
2019-01-11T21:17:44.004Z,1.50
2019-01-11T21:20:15.092Z,1.50
2019-01-11T21:22:44.043Z,1.60
2019-01-11T21:25:14.570Z,1.60
2019-01-11T21:27:43.157Z,1.60
2019-01-11T21:30:20.327Z,1.60
2019-01-11T21:32:48.980Z,1.60
2019-01-11T21:35:17.664Z,1.60
2019-01-11T21:37:46.365Z,1.70
2019-01-11T21:40:16.886Z,1.70
2019-01-11T21:42:46.021Z,1.70
2019-01-11T21:45:14.808Z,1.70
2019-01-11T21:47:43.385Z,1.70
2019-01-11T21:50:17.649Z,1.70
2019-01-11T21:52:46.244Z,1.60
2019-01-11T21:55:15.058Z,1.70
2019-01-11T21:57:44.234Z,1.70
2019-01-11T22:00:19.534Z,1.70
2019-01-11T22:02:48.208Z,1.60
2019-01-11T22:05:17.030Z,1.60
2019-01-11T22:07:45.982Z,1.70
2019-01-11T22:10:16.158Z,1.60
2019-01-11T22:12:45.052Z,1.60
2019-01-11T22:15:16.098Z,1.60
2019-01-11T22:17:44.930Z,1.70
2019-01-11T22:20:18.755Z,1.70
2019-01-11T22:22:47.317Z,1.70
2019-01-11T22:25:16.686Z,1.80
2019-01-11T22:27:45.395Z,1.80
2019-01-11T22:30:16.594Z,1.80
2019-01-11T22:32:45.400Z,1.80
2019-01-11T22:35:14.714Z,1.80
2019-01-11T22:37:44.028Z,1.80
2019-01-11T22:40:15.035Z,1.90
2019-01-11T22:42:43.707Z,1.90
2019-01-11T22:45:15.913Z,1.90
2019-01-11T22:47:44.660Z,1.90
2019-01-11T22:50:15.227Z,2.00
2019-01-11T22:52:43.713Z,2.00
2019-01-11T22:55:15.409Z,2.00
2019-01-11T22:57:44.027Z,2.00
2019-01-11T23:00:26.554Z,2.10
2019-01-11T23:02:58.476Z,2.10
2019-01-11T23:05:27.361Z,2.10
2019-01-11T23:07:56.888Z,2.10
2019-01-11T23:10:52.161Z,2.20
2019-01-11T23:13:20.894Z,2.20
2019-01-11T23:15:50.470Z,2.20
2019-01-11T23:18:19.185Z,2.30
2019-01-11T23:20:47.941Z,2.30
2019-01-11T23:23:16.663Z,2.30
2019-01-11T23:25:45.561Z,2.30
2019-01-11T23:28:14.269Z,2.30
2019-01-11T23:30:42.801Z,2.30
2019-01-11T23:33:11.455Z,2.40
2019-01-11T23:35:40.624Z,2.40
2019-01-11T23:38:09.139Z,2.40
2019-01-11T23:40:37.809Z,2.40
2019-01-11T23:43:06.405Z,2.40
2019-01-11T23:45:34.983Z,2.40
2019-01-11T23:48:03.494Z,2.40
2019-01-11T23:50:33.035Z,2.40
2019-01-11T23:53:02.088Z,2.40
2019-01-11T23:55:30.661Z,2.40
2019-01-11T23:57:59.210Z,2.40
